Washington, Connecticut
Current Conditions -  °F | °C
As of 7:50 PM on Wednesday 22 Oct 2014 (Local Time) from KOXC Reporting Station
Light Rain Light Rain  
Wind Chill: 41°   Ceiling: 1200
Heat Index: 48°   Visibility: 3mi
Dew Point: 43°   Wind: 21mph
Humidity: 82%   Direction: 30°NNE
Pressure: 29.8"   Gusts: 38mph
Location:  41.63°N, 73.31°W
Report Text: KOXC 222350Z 03018G33KT 3SM -RA BR BKN012 OVC022 09/06 A2980
Loading
Personal Weather Stations






























Interactive Weather Map
Tropical Storm Tracking
New forecast layout! Learn more

10-Day Weather Forecast

Advertisements
Track Severe Weather on mobile